Isabel, Texas
Current Conditions -  °F | °C
As of 11:53 AM on Thursday 30 Oct 2014 (Local Time) from KPIL Reporting Station
Clear Clear  
Wind Chill: 84°   Ceiling: Unl
Heat Index: 86°   Visibility: 8mi
Dew Point: 66°   Wind: 3mph
Humidity: 55%   Direction: NA
Pressure: 30.09"   Gusts: NA
Location:  26.0776°N, 97.3389°W
Report Text: KPIL 301653Z AUTO VRB03KT 8SM CLR 29/19 A3009 RMK AO2 SLP187 T02890189
Loading
Personal Weather Stations






























Interactive Weather Map
Tropical Storm Tracking
New forecast layout! Learn more

10-Day Weather Forecast

Advertisements
Track Severe Weather on mobile